Hosin, República Checa

8:00 PM CEST en Agosto 29, 2016 (GMT +0200)
Pod vodárnou | | Change Station

Alt 1397 ft 49.03 °N, 14.50 °E | Updated 1 minute ago

Mostly Cloudy
Muy nublado
66.9 ° F
Sensación térmica 66.9 ° F
N
0.6
Viento Variable Viento desde NNO
Gusts 1.2 mph

Hoy
Alta -- | Baja -- ° F
--% Posibilidad de precipitaciones
Ayer
Alta -- | Baja -- ° F
Precip. -- pul
Presión 30.12 pul
Visibilidad 6.2 Millas
Nubes Baja 2200 ft
Nubes dispersas 11000 ft
Muy nublado 19000 ft
Punto de rocío 63 ° F
Humedad 87%
Precipitaciones 0.29 pul
Espesor de la nieve No disponible.
6:14 AM 7:50 PM
Creciente menguante, 7% visible
METAR LOWL 291750Z 22003KT 190V250 9999 FEW022 SCT110 BKN190 20/17 Q1020 NOSIG
Presión 30.12 pul
Visibilidad 6.2 Millas
Nubes Baja 2200 ft
Nubes dispersas 11000 ft
Muy nublado 19000 ft
Punto de rocío 63 ° F
Humedad 87%
Precipitaciones 0.29 pul
Espesor de la nieve No disponible.
6:14 AM 7:50 PM
Creciente menguante, 7% visible
METAR LOWL 291750Z 22003KT 190V250 9999 FEW022 SCT110 BKN190 20/17 Q1020 NOSIG

10-Day Weather Forecast

×

Almanac

Astronomía

Aug. 29, 2016 Salida Puesta
Hora real
Crepúsculo civil
Crepúsculo náutico
Crepúsculo astronómico
Luna
Horas de luz
Horas de luz
Tomorrow will be .
, % of the Moon is Illuminated

Extremos de hoy

Máximos del país Bajas del país

Community

WunderPhotos

Upload Photos

1,935,683 ¡fotos cargadas!

WunderBlog® & News

Nearby

Calidad del aire

  Calidad del aire Índice AQ Contaminante
Not available.

Grosos de nieve

Estación Profundido Altura

Actividad de terremotos

Ciudad Distance Mag. Tiempo y dato
Magnitud mínima muestra es 2,5.

Temperaturas de aguas costeras

Lugar Temperatura

Stations

Estaciones meteorológicas cercanas

Ubicación de la estación Temp. Vientos helados Punto de rocío Humedad Viento Precip. Alt Actualizado Tipo